createdAt,value
2018-12-27T00:00:32.149Z,-0.60
2018-12-27T00:03:00.699Z,-0.55
2018-12-27T00:05:29.208Z,-0.49
2018-12-27T00:07:57.719Z,-0.44
2018-12-27T00:10:26.261Z,-0.39
2018-12-27T00:12:54.780Z,-0.38
2018-12-27T00:15:23.283Z,-0.45
2018-12-27T00:18:04.465Z,-0.64
2018-12-27T00:20:32.977Z,-0.79
2018-12-27T00:23:01.485Z,-0.95
2018-12-27T00:28:04.324Z,-0.98
2018-12-27T00:30:32.958Z,-0.93
2018-12-27T00:35:36.014Z,-0.84
2018-12-27T00:38:04.630Z,-0.85
2018-12-27T00:40:33.306Z,-0.88
2018-12-27T00:43:01.948Z,-0.97
2018-12-27T00:45:30.595Z,-0.92
2018-12-27T00:50:33.031Z,-0.84
2018-12-27T00:55:36.247Z,-0.86
2018-12-27T01:00:38.529Z,-0.76
2018-12-27T01:03:26.399Z,-0.74
2018-12-27T01:05:55.034Z,-0.69
2018-12-27T01:08:23.671Z,-0.66
2018-12-27T01:13:25.962Z,-0.54
2018-12-27T01:15:54.598Z,-0.54
2018-12-27T01:20:57.355Z,-0.52
2018-12-27T01:26:00.089Z,-0.43
2018-12-27T01:31:03.331Z,-0.36
2018-12-27T01:36:06.093Z,-0.35
2018-12-27T01:41:09.361Z,-0.35
2018-12-27T01:46:12.427Z,-0.47
2018-12-27T01:48:41.093Z,-0.49
2018-12-27T01:51:09.729Z,-0.51
2018-12-27T01:53:38.364Z,-0.54
2018-12-27T01:56:07.045Z,-0.61
2018-12-27T01:58:35.660Z,-0.69
2018-12-27T02:01:04.289Z,-0.66
2018-12-27T02:03:32.970Z,-0.58
2018-12-27T02:06:01.599Z,-0.53
2018-12-27T02:08:30.234Z,-0.47
2018-12-27T02:13:32.964Z,-0.40
2018-12-27T02:16:01.592Z,-0.33
2018-12-27T02:21:04.798Z,-0.28
2018-12-27T02:26:07.510Z,-0.30
2018-12-27T02:28:36.198Z,-0.32
2018-12-27T02:31:04.837Z,-0.40
2018-12-27T02:33:35.411Z,-0.43
2018-12-27T02:36:03.895Z,-0.46
2018-12-27T02:38:32.518Z,-0.45
2018-12-27T02:41:01.158Z,-0.43
2018-12-27T02:46:04.169Z,-0.57
2018-12-27T02:51:07.425Z,-0.81
2018-12-27T02:56:10.649Z,-1.09
2018-12-27T02:58:39.278Z,-1.24
2018-12-27T03:01:07.945Z,-1.35
2018-12-27T03:03:43.817Z,-1.46
2018-12-27T03:06:06.939Z,-1.46
2018-12-27T03:11:09.448Z,-1.36
2018-12-27T03:13:38.079Z,-1.30
2018-12-27T03:18:40.434Z,-1.37
2018-12-27T03:21:09.069Z,-1.41
2018-12-27T03:23:37.712Z,-1.40
2018-12-27T03:26:06.342Z,-1.37
2018-12-27T03:31:08.705Z,-1.39
2018-12-27T03:33:37.339Z,-1.38
2018-12-27T03:38:40.505Z,-1.35
2018-12-27T03:41:09.160Z,-1.34
2018-12-27T03:43:49.784Z,-1.26
2018-12-27T03:46:08.135Z,-1.10
2018-12-27T03:51:10.589Z,-0.87
2018-12-27T03:53:39.221Z,-0.86
2018-12-27T03:58:41.876Z,-0.89
2018-12-27T04:01:10.501Z,-0.87
2018-12-27T04:06:13.729Z,-0.83
2018-12-27T04:08:42.407Z,-0.82
2018-12-27T04:11:11.040Z,-0.82
2018-12-27T04:13:39.670Z,-0.80
2018-12-27T04:18:42.676Z,-0.82
2018-12-27T04:24:25.276Z,-0.75
2018-12-27T04:29:28.247Z,-0.64
2018-12-27T04:32:36.795Z,-0.54
2018-12-27T04:35:05.372Z,-0.48
2018-12-27T04:37:33.873Z,-0.45
2018-12-27T04:43:16.707Z,-0.40
2018-12-27T04:48:18.847Z,-0.34
2018-12-27T04:50:47.343Z,-0.36
2018-12-27T04:55:49.453Z,-0.39
2018-12-27T05:00:52.439Z,-0.35
2018-12-27T05:05:54.969Z,-0.38
2018-12-27T05:08:23.475Z,-0.41
2018-12-27T05:10:52.029Z,-0.41
2018-12-27T05:13:20.535Z,-0.47
2018-12-27T05:15:49.049Z,-0.50
2018-12-27T05:20:51.723Z,-0.61
2018-12-27T05:23:20.313Z,-0.66
2018-12-27T05:25:48.812Z,-0.68
2018-12-27T05:28:17.322Z,-0.71
2018-12-27T05:30:45.839Z,-0.73
2018-12-27T05:33:14.355Z,-0.76
2018-12-27T05:35:42.857Z,-0.79
2018-12-27T05:38:30.811Z,-0.82
2018-12-27T05:40:59.315Z,-0.84
2018-12-27T05:43:27.839Z,-0.85
2018-12-27T05:48:29.853Z,-0.92
2018-12-27T05:53:32.872Z,-0.94
2018-12-27T05:56:01.439Z,-0.97
2018-12-27T05:58:29.943Z,-0.97
2018-12-27T06:00:58.471Z,-1.00
2018-12-27T06:03:27.042Z,-0.95
2018-12-27T06:05:55.551Z,-0.88
2018-12-27T06:08:24.060Z,-0.85
2018-12-27T06:13:26.519Z,-0.87
2018-12-27T06:15:55.030Z,-0.87
2018-12-27T06:20:57.161Z,-0.84
2018-12-27T06:23:25.728Z,-0.84
2018-12-27T06:26:13.425Z,-0.84
2018-12-27T06:28:42.074Z,-0.83
2018-12-27T06:31:10.601Z,-0.83
2018-12-27T06:33:39.119Z,-0.83
2018-12-27T06:38:42.115Z,-0.86
2018-12-27T06:41:10.664Z,-0.87
2018-12-27T06:43:39.200Z,-0.85
2018-12-27T06:46:07.719Z,-0.83
2018-12-27T06:51:09.992Z,-0.78
2018-12-27T06:53:40.561Z,-0.75
2018-12-27T06:58:43.010Z,-0.72
2018-12-27T07:03:45.629Z,-0.83
2018-12-27T07:08:48.048Z,-0.78
2018-12-27T07:13:51.184Z,-0.74
2018-12-27T07:18:54.098Z,-0.81
2018-12-27T07:21:22.668Z,-0.84
2018-12-27T07:23:51.182Z,-0.86
2018-12-27T07:26:19.687Z,-0.87
2018-12-27T07:28:48.218Z,-0.87
2018-12-27T07:31:16.721Z,-0.82
2018-12-27T07:33:45.247Z,-0.73
2018-12-27T07:38:47.541Z,-0.56
2018-12-27T07:41:16.069Z,-0.46
2018-12-27T07:43:44.599Z,-0.39
2018-12-27T07:46:13.102Z,-0.31
2018-12-27T07:48:41.612Z,-0.24
2018-12-27T07:51:10.158Z,-0.18
2018-12-27T07:53:38.654Z,-0.16
2018-12-27T07:56:07.166Z,-0.16
2018-12-27T08:01:09.679Z,-0.11
2018-12-27T08:03:38.211Z,-0.03
2018-12-27T08:06:06.710Z,0.04
2018-12-27T08:08:35.214Z,0.04
2018-12-27T08:13:38.069Z,-0.02
2018-12-27T08:16:06.642Z,0.01
2018-12-27T08:18:35.140Z,0.11
2018-12-27T08:21:03.636Z,0.24
2018-12-27T08:26:06.263Z,0.44
2018-12-27T08:28:34.760Z,0.44
2018-12-27T08:33:37.168Z,0.35
2018-12-27T08:36:05.670Z,0.25
2018-12-27T08:41:08.711Z,0.26
2018-12-27T08:46:11.680Z,0.30
2018-12-27T08:48:40.198Z,0.31
2018-12-27T08:51:08.711Z,0.37
2018-12-27T08:53:37.198Z,0.48
2018-12-27T08:58:39.290Z,0.59
2018-12-27T09:03:41.692Z,0.60
2018-12-27T09:06:10.230Z,0.62
2018-12-27T09:08:38.814Z,0.72
2018-12-27T09:11:07.302Z,0.81
2018-12-27T09:21:38.625Z,1.20
2018-12-27T09:24:07.122Z,1.28
2018-12-27T09:29:09.140Z,1.36
2018-12-27T09:31:39.274Z,1.36
2018-12-27T09:34:07.973Z,1.44
2018-12-27T09:36:36.478Z,1.51
2018-12-27T09:39:45.019Z,1.65
2018-12-27T09:42:13.525Z,1.76
2018-12-27T09:44:42.029Z,1.89
2018-12-27T09:49:44.746Z,2.12
2018-12-27T09:52:13.254Z,2.26
2018-12-27T09:57:16.043Z,2.63
2018-12-27T10:02:18.495Z,2.91
2018-12-27T10:04:46.993Z,3.14
2018-12-27T10:09:49.503Z,3.42
2018-12-27T10:12:18.011Z,3.56
2018-12-27T10:17:20.453Z,3.79
2018-12-27T10:20:08.443Z,3.78
2018-12-27T10:22:36.940Z,3.77
2018-12-27T10:25:45.615Z,3.77
2018-12-27T10:28:14.119Z,3.77
2018-12-27T10:30:42.647Z,3.81
2018-12-27T10:33:11.178Z,3.80
2018-12-27T10:36:19.598Z,3.77
2018-12-27T10:41:22.341Z,3.71
2018-12-27T10:43:50.846Z,3.74
2018-12-27T10:48:53.312Z,3.86
2018-12-27T10:51:21.867Z,3.92
2018-12-27T10:53:50.364Z,3.97
2018-12-27T10:56:18.874Z,3.98
2018-12-27T11:03:56.350Z,4.11
2018-12-27T11:06:24.946Z,4.17
2018-12-27T11:08:53.434Z,4.24
2018-12-27T11:11:21.932Z,4.29
2018-12-27T11:13:50.448Z,4.35
2018-12-27T11:16:18.947Z,4.39
2018-12-27T11:18:47.445Z,4.40
2018-12-27T11:21:15.988Z,4.42
2018-12-27T11:23:44.482Z,4.45
2018-12-27T11:26:12.995Z,4.48
2018-12-27T11:28:41.515Z,4.52
2018-12-27T11:31:10.015Z,4.56
2018-12-27T11:33:38.516Z,4.58
2018-12-27T11:38:41.344Z,4.65
2018-12-27T11:41:09.842Z,4.70
2018-12-27T11:43:38.604Z,4.69
2018-12-27T11:46:07.097Z,4.65
2018-12-27T11:48:35.592Z,4.58
2018-12-27T11:51:04.142Z,4.52
2018-12-27T11:53:32.641Z,4.46
2018-12-27T11:56:01.201Z,4.43
2018-12-27T11:58:29.829Z,4.39
2018-12-27T12:00:58.324Z,4.32
2018-12-27T12:03:26.823Z,4.28
2018-12-27T12:05:55.355Z,4.26
2018-12-27T12:08:23.854Z,4.28
2018-12-27T12:10:52.392Z,4.30
2018-12-27T12:13:20.920Z,4.39
2018-12-27T12:15:49.433Z,4.51
2018-12-27T12:18:17.943Z,4.70
2018-12-27T12:23:20.112Z,5.09
2018-12-27T12:25:48.608Z,5.25
2018-12-27T12:30:50.900Z,5.50
2018-12-27T12:33:19.406Z,5.62
2018-12-27T12:35:47.964Z,5.75
2018-12-27T12:38:56.398Z,5.87
2018-12-27T12:41:24.907Z,5.96
2018-12-27T12:43:53.475Z,6.07
2018-12-27T12:46:21.904Z,6.21
2018-12-27T12:51:24.662Z,6.56
2018-12-27T12:53:53.263Z,6.75
2018-12-27T12:56:21.759Z,6.88
2018-12-27T12:58:50.252Z,7.04
2018-12-27T13:01:18.866Z,7.20
2018-12-27T13:03:47.368Z,7.34
2018-12-27T13:06:18.216Z,7.40
2018-12-27T13:11:19.590Z,7.43
2018-12-27T13:13:48.086Z,7.53
2018-12-27T13:16:16.604Z,7.68
2018-12-27T13:18:47.345Z,7.81
2018-12-27T13:21:15.327Z,7.83
2018-12-27T13:23:43.878Z,7.92
2018-12-27T13:26:12.380Z,8.05
2018-12-27T13:34:09.018Z,8.40
2018-12-27T13:36:37.635Z,8.49
2018-12-27T13:39:46.186Z,8.58
2018-12-27T13:42:14.821Z,8.63
2018-12-27T13:44:43.314Z,8.60
2018-12-27T13:47:11.846Z,8.56
2018-12-27T13:49:40.366Z,8.62
2018-12-27T13:52:16.355Z,8.66
2018-12-27T13:57:18.700Z,8.80
2018-12-27T13:59:47.195Z,8.81
2018-12-27T14:02:15.859Z,8.93
2018-12-27T14:04:44.365Z,9.00
2018-12-27T14:07:12.866Z,9.05
2018-12-27T14:09:41.490Z,9.00
2018-12-27T14:12:10.336Z,9.06
2018-12-27T14:14:38.832Z,9.14
2018-12-27T14:17:07.503Z,9.05
2018-12-27T14:19:35.999Z,8.92
2018-12-27T14:22:04.498Z,8.78
2018-12-27T14:24:33.046Z,8.68
2018-12-27T14:27:01.574Z,8.54
2018-12-27T14:29:30.072Z,8.23
2018-12-27T14:31:58.761Z,7.90
2018-12-27T14:34:27.256Z,7.67
2018-12-27T14:36:55.773Z,7.41
2018-12-27T14:39:24.304Z,7.26
2018-12-27T14:41:52.801Z,7.11
2018-12-27T14:44:21.299Z,6.94
2018-12-27T14:46:49.984Z,6.77
2018-12-27T14:49:58.426Z,6.65
2018-12-27T14:52:26.994Z,6.57
2018-12-27T14:54:55.494Z,6.40
2018-12-27T14:57:23.986Z,6.28
2018-12-27T14:59:52.616Z,6.09
2018-12-27T15:02:21.103Z,5.95
2018-12-27T15:04:49.598Z,5.81
2018-12-27T15:07:18.254Z,5.68
2018-12-27T15:09:46.748Z,5.58
2018-12-27T15:12:17.078Z,5.50
2018-12-27T15:14:45.616Z,5.38
2018-12-27T15:17:14.174Z,5.25
2018-12-27T15:19:42.612Z,5.08
2018-12-27T15:22:11.230Z,4.97
2018-12-27T15:24:39.729Z,4.90
2018-12-27T15:27:08.240Z,4.88
2018-12-27T15:29:36.872Z,4.82
2018-12-27T15:32:05.367Z,4.76
2018-12-27T15:34:33.860Z,4.66
2018-12-27T15:39:36.633Z,4.56
2018-12-27T15:42:05.192Z,4.46
2018-12-27T15:44:33.692Z,4.41
2018-12-27T15:47:02.186Z,4.30
2018-12-27T15:49:30.702Z,4.25
2018-12-27T15:51:59.198Z,4.21
2018-12-27T15:54:27.704Z,4.15
2018-12-27T15:56:56.328Z,4.12
2018-12-27T15:59:24.829Z,4.07
2018-12-27T16:01:53.335Z,4.03
2018-12-27T16:04:41.374Z,3.98
2018-12-27T16:07:09.880Z,3.98
2018-12-27T16:09:38.399Z,4.00
2018-12-27T16:14:44.502Z,3.80
2018-12-27T16:19:46.966Z,3.64
2018-12-27T16:22:15.468Z,3.48
2018-12-27T16:27:17.860Z,3.29
2018-12-27T16:29:46.358Z,3.23
2018-12-27T16:34:48.468Z,3.10
2018-12-27T16:37:16.984Z,3.00
2018-12-27T16:42:21.906Z,2.95
2018-12-27T16:44:49.909Z,2.87
2018-12-27T16:47:18.398Z,2.85
2018-12-27T16:49:46.894Z,2.83
2018-12-27T16:54:49.904Z,2.68
2018-12-27T16:57:19.905Z,2.64
2018-12-27T17:02:22.318Z,2.55
2018-12-27T17:04:50.948Z,2.56
2018-12-27T17:07:19.444Z,2.62
2018-12-27T17:09:47.943Z,2.63
2018-12-27T17:12:16.514Z,2.59
2018-12-27T17:14:45.023Z,2.59
2018-12-27T17:17:13.528Z,2.54
2018-12-27T17:19:42.098Z,2.56
2018-12-27T17:22:10.673Z,2.60
2018-12-27T17:24:39.267Z,2.62
2018-12-27T17:27:07.921Z,2.64
2018-12-27T17:29:36.429Z,2.67
2018-12-27T17:32:44.953Z,2.67
2018-12-27T17:35:13.456Z,2.59
2018-12-27T17:37:41.959Z,2.45
2018-12-27T17:40:10.575Z,2.33
2018-12-27T17:42:39.091Z,2.28
2018-12-27T17:45:19.662Z,2.20
2018-12-27T17:47:48.170Z,2.12
2018-12-27T17:50:16.672Z,2.01
2018-12-27T17:52:45.205Z,1.92
2018-12-27T17:55:13.707Z,1.78
2018-12-27T17:57:42.211Z,1.74
2018-12-27T18:03:04.296Z,1.69
2018-12-27T18:08:06.844Z,1.74
2018-12-27T18:13:09.057Z,1.75
2018-12-27T18:15:37.575Z,1.77
2018-12-27T18:20:40.576Z,1.80
2018-12-27T18:25:43.561Z,1.66
2018-12-27T18:30:45.782Z,1.63
2018-12-27T18:33:14.281Z,1.67
2018-12-27T18:38:16.697Z,1.68
2018-12-27T18:40:45.203Z,1.72
2018-12-27T18:45:48.242Z,1.65
2018-12-27T18:48:28.910Z,1.65
2018-12-27T18:50:57.475Z,1.68
2018-12-27T18:53:25.983Z,1.68
2018-12-27T18:55:54.533Z,1.61
2018-12-27T18:58:23.117Z,1.60
2018-12-27T19:00:51.629Z,1.60
2018-12-27T19:05:54.131Z,1.46
2018-12-27T19:11:35.676Z,1.27
2018-12-27T19:16:37.670Z,1.34
2018-12-27T19:19:25.563Z,1.30
2018-12-27T19:21:54.068Z,1.26
2018-12-27T19:24:22.568Z,1.28
2018-12-27T19:26:51.097Z,1.31
2018-12-27T19:29:21.365Z,1.34
2018-12-27T19:31:49.883Z,1.41
2018-12-27T19:34:18.478Z,1.48
2018-12-27T19:36:46.977Z,1.57
2018-12-27T19:39:15.479Z,1.57
2018-12-27T19:44:18.568Z,1.47
2018-12-27T19:46:47.155Z,1.37
2018-12-27T19:49:28.145Z,1.32
2018-12-27T19:54:32.022Z,1.20
2018-12-27T19:59:34.987Z,1.15
2018-12-27T20:07:31.733Z,1.05
2018-12-27T20:10:00.245Z,1.09
2018-12-27T20:12:28.961Z,1.12
2018-12-27T20:14:57.470Z,1.13
2018-12-27T20:17:25.969Z,1.14
2018-12-27T20:20:13.781Z,1.20
2018-12-27T20:22:42.285Z,1.20
2018-12-27T20:25:10.791Z,1.17
2018-12-27T20:30:32.824Z,1.18
2018-12-27T20:35:35.628Z,1.27
2018-12-27T20:40:38.813Z,1.27
2018-12-27T20:43:07.351Z,1.22
2018-12-27T20:45:35.854Z,1.20
2018-12-27T20:48:04.356Z,1.20
2018-12-27T20:50:45.840Z,1.23
2018-12-27T20:53:14.345Z,1.29
2018-12-27T20:55:42.851Z,1.28
2018-12-27T20:58:11.420Z,1.31
2018-12-27T21:00:39.971Z,1.34
2018-12-27T21:03:08.432Z,1.34
2018-12-27T21:05:37.001Z,1.34
2018-12-27T21:08:05.515Z,1.37
2018-12-27T21:10:34.074Z,1.40
2018-12-27T21:13:42.635Z,1.42
2018-12-27T21:16:11.142Z,1.37
2018-12-27T21:18:58.966Z,1.31
2018-12-27T21:21:46.858Z,1.28
2018-12-27T21:26:49.770Z,1.18
2018-12-27T21:31:52.448Z,1.12
2018-12-27T21:36:55.558Z,1.03
2018-12-27T21:39:24.061Z,0.92
2018-12-27T21:41:52.590Z,0.93
2018-12-27T21:44:21.089Z,1.00
2018-12-27T21:46:49.596Z,1.02
2018-12-27T21:51:52.480Z,0.91
2018-12-27T21:54:21.003Z,0.83
2018-12-27T21:56:49.594Z,0.77
2018-12-27T21:59:18.100Z,0.75
2018-12-27T22:01:46.664Z,0.80
2018-12-27T22:04:15.166Z,0.83
2018-12-27T22:06:43.660Z,0.89
2018-12-27T22:11:45.854Z,0.96
2018-12-27T22:14:14.356Z,0.98
2018-12-27T22:16:42.879Z,0.97
2018-12-27T22:19:11.387Z,0.94
2018-12-27T22:21:39.886Z,0.96
2018-12-27T22:26:42.816Z,0.96
2018-12-27T22:31:45.602Z,0.90
2018-12-27T22:36:48.666Z,0.78
2018-12-27T22:39:17.160Z,0.82
2018-12-27T22:44:19.356Z,0.82
2018-12-27T22:46:47.858Z,0.85
2018-12-27T22:51:50.761Z,0.76
2018-12-27T22:56:53.774Z,0.71
2018-12-27T23:01:56.826Z,0.52
2018-12-27T23:04:25.330Z,0.55
2018-12-27T23:09:27.557Z,0.67
2018-12-27T23:11:55.994Z,0.65
2018-12-27T23:16:58.195Z,0.73
2018-12-27T23:19:26.692Z,0.74
2018-12-27T23:21:55.231Z,0.70
2018-12-27T23:24:23.738Z,0.73
2018-12-27T23:26:52.244Z,0.76
2018-12-27T23:29:20.874Z,0.80
2018-12-27T23:31:49.367Z,0.79
2018-12-27T23:34:17.880Z,0.77
2018-12-27T23:36:46.422Z,0.67
2018-12-27T23:39:34.258Z,0.61
2018-12-27T23:42:02.821Z,0.54
2018-12-27T23:44:31.320Z,0.52
2018-12-27T23:46:59.822Z,0.51
2018-12-27T23:49:28.337Z,0.53
2018-12-27T23:51:56.835Z,0.57
2018-12-27T23:54:25.337Z,0.56
2018-12-27T23:59:27.817Z,0.64
